sensor_id;sensor_type;location;lat;lon;timestamp;pressure;altitude;pressure_sealevel;temperature;humidity
73600;BME280;61877;48.246;9.220;2023-06-05T00:00:42;94247.06;;;9.62;77.79
73600;BME280;61877;48.246;9.220;2023-06-05T00:03:07;94246.03;;;9.55;78.27
73600;BME280;61877;48.246;9.220;2023-06-05T00:05:33;94244.25;;;9.59;77.84
73600;BME280;61877;48.246;9.220;2023-06-05T00:07:58;94242.22;;;9.56;77.71
73600;BME280;61877;48.246;9.220;2023-06-05T00:10:23;94241.59;;;9.38;78.63
73600;BME280;61877;48.246;9.220;2023-06-05T00:12:49;94241.44;;;9.35;78.67
73600;BME280;61877;48.246;9.220;2023-06-05T00:15:14;94241.81;;;9.25;79.03
73600;BME280;61877;48.246;9.220;2023-06-05T00:17:41;94239.28;;;9.28;79.34
73600;BME280;61877;48.246;9.220;2023-06-05T00:20:07;94243.09;;;9.18;79.06
73600;BME280;61877;48.246;9.220;2023-06-05T00:22:33;94247.91;;;9.04;79.86
73600;BME280;61877;48.246;9.220;2023-06-05T00:24:58;94241.63;;;9.00;80.43
73600;BME280;61877;48.246;9.220;2023-06-05T00:27:23;94249.84;;;8.95;80.58
73600;BME280;61877;48.246;9.220;2023-06-05T00:29:49;94240.91;;;8.91;80.69
73600;BME280;61877;48.246;9.220;2023-06-05T00:32:15;94247.75;;;8.80;80.82
73600;BME280;61877;48.246;9.220;2023-06-05T00:34:41;94230.59;;;8.73;80.83
73600;BME280;61877;48.246;9.220;2023-06-05T00:37:07;94240.50;;;8.72;80.68
73600;BME280;61877;48.246;9.220;2023-06-05T00:39:32;94237.41;;;8.70;81.17
73600;BME280;61877;48.246;9.220;2023-06-05T00:41:57;94233.13;;;8.69;81.34
73600;BME280;61877;48.246;9.220;2023-06-05T00:44:23;94241.78;;;8.75;81.16
73600;BME280;61877;48.246;9.220;2023-06-05T00:46:50;94239.75;;;8.72;80.87
73600;BME280;61877;48.246;9.220;2023-06-05T00:49:18;94242.09;;;8.73;81.27
73600;BME280;61877;48.246;9.220;2023-06-05T00:51:47;94236.09;;;8.76;80.40
73600;BME280;61877;48.246;9.220;2023-06-05T00:54:12;94236.28;;;8.71;80.81
73600;BME280;61877;48.246;9.220;2023-06-05T00:56:38;94242.91;;;8.65;80.92
73600;BME280;61877;48.246;9.220;2023-06-05T00:59:03;94236.59;;;8.70;80.89
73600;BME280;61877;48.246;9.220;2023-06-05T01:01:29;94235.81;;;8.69;80.68
73600;BME280;61877;48.246;9.220;2023-06-05T01:03:55;94235.97;;;8.73;80.40
73600;BME280;61877;48.246;9.220;2023-06-05T01:06:20;94232.53;;;8.64;80.50
73600;BME280;61877;48.246;9.220;2023-06-05T01:08:47;94237.44;;;8.62;80.85
73600;BME280;61877;48.246;9.220;2023-06-05T01:11:18;94238.53;;;8.52;81.13
73600;BME280;61877;48.246;9.220;2023-06-05T01:13:49;94244.25;;;8.42;81.76
73600;BME280;61877;48.246;9.220;2023-06-05T01:16:16;94241.13;;;8.40;81.52
73600;BME280;61877;48.246;9.220;2023-06-05T01:18:41;94240.31;;;8.40;81.42
73600;BME280;61877;48.246;9.220;2023-06-05T01:21:10;94241.28;;;8.44;81.10
73600;BME280;61877;48.246;9.220;2023-06-05T01:23:37;94242.22;;;8.31;81.19
73600;BME280;61877;48.246;9.220;2023-06-05T01:26:04;94241.94;;;8.32;81.23
73600;BME280;61877;48.246;9.220;2023-06-05T01:28:31;94233.44;;;8.22;81.38
73600;BME280;61877;48.246;9.220;2023-06-05T01:31:03;94242.44;;;8.09;82.01
73600;BME280;61877;48.246;9.220;2023-06-05T01:33:32;94233.31;;;8.01;82.52
73600;BME280;61877;48.246;9.220;2023-06-05T01:35:58;94227.38;;;7.96;82.93
73600;BME280;61877;48.246;9.220;2023-06-05T01:38:24;94237.72;;;7.97;83.32
73600;BME280;61877;48.246;9.220;2023-06-05T01:40:52;94231.44;;;8.02;82.85
73600;BME280;61877;48.246;9.220;2023-06-05T01:43:18;94229.22;;;8.04;82.71
73600;BME280;61877;48.246;9.220;2023-06-05T01:45:44;94230.19;;;7.99;82.83
73600;BME280;61877;48.246;9.220;2023-06-05T01:48:09;94232.50;;;8.09;82.17
73600;BME280;61877;48.246;9.220;2023-06-05T01:50:35;94230.03;;;8.04;82.58
73600;BME280;61877;48.246;9.220;2023-06-05T01:53:01;94227.31;;;8.13;81.72
73600;BME280;61877;48.246;9.220;2023-06-05T01:55:26;94226.09;;;8.02;81.96
73600;BME280;61877;48.246;9.220;2023-06-05T01:57:53;94228.13;;;7.96;81.88
73600;BME280;61877;48.246;9.220;2023-06-05T02:00:18;94218.72;;;7.81;83.27
73600;BME280;61877;48.246;9.220;2023-06-05T02:02:45;94225.50;;;7.88;82.67
73600;BME280;61877;48.246;9.220;2023-06-05T02:05:11;94219.69;;;7.77;82.77
73600;BME280;61877;48.246;9.220;2023-06-05T02:07:38;94218.75;;;7.73;82.88
73600;BME280;61877;48.246;9.220;2023-06-05T02:10:04;94219.06;;;7.80;82.54
73600;BME280;61877;48.246;9.220;2023-06-05T02:12:30;94215.59;;;7.79;81.94
73600;BME280;61877;48.246;9.220;2023-06-05T02:14:56;94214.03;;;7.61;82.97
73600;BME280;61877;48.246;9.220;2023-06-05T02:17:22;94220.97;;;7.54;83.41
73600;BME280;61877;48.246;9.220;2023-06-05T02:19:47;94225.50;;;7.53;82.81
73600;BME280;61877;48.246;9.220;2023-06-05T02:22:12;94224.09;;;7.39;83.96
73600;BME280;61877;48.246;9.220;2023-06-05T02:24:38;94229.59;;;7.34;84.33
73600;BME280;61877;48.246;9.220;2023-06-05T02:27:03;94227.56;;;7.31;84.32
73600;BME280;61877;48.246;9.220;2023-06-05T02:29:29;94224.72;;;7.27;84.43
73600;BME280;61877;48.246;9.220;2023-06-05T02:31:55;94214.19;;;7.22;84.80
73600;BME280;61877;48.246;9.220;2023-06-05T02:34:21;94223.44;;;7.16;84.80
73600;BME280;61877;48.246;9.220;2023-06-05T02:36:46;94218.72;;;7.13;85.08
73600;BME280;61877;48.246;9.220;2023-06-05T02:39:12;94219.03;;;7.12;84.83
73600;BME280;61877;48.246;9.220;2023-06-05T02:41:37;94217.81;;;7.18;85.39
73600;BME280;61877;48.246;9.220;2023-06-05T02:44:02;94218.41;;;7.15;84.30
73600;BME280;61877;48.246;9.220;2023-06-05T02:46:28;94218.88;;;7.17;84.88
73600;BME280;61877;48.246;9.220;2023-06-05T02:48:54;94214.38;;;7.34;84.43
73600;BME280;61877;48.246;9.220;2023-06-05T02:51:20;94219.06;;;7.37;84.04
73600;BME280;61877;48.246;9.220;2023-06-05T02:53:45;94214.06;;;7.36;84.47
73600;BME280;61877;48.246;9.220;2023-06-05T02:56:11;94217.63;;;7.31;84.41
73600;BME280;61877;48.246;9.220;2023-06-05T02:58:36;94212.16;;;7.28;84.45
73600;BME280;61877;48.246;9.220;2023-06-05T03:01:01;94212.00;;;7.16;85.43
73600;BME280;61877;48.246;9.220;2023-06-05T03:03:28;94215.59;;;7.03;86.25
73600;BME280;61877;48.246;9.220;2023-06-05T03:05:56;94215.59;;;7.03;85.99
73600;BME280;61877;48.246;9.220;2023-06-05T03:08:21;94209.94;;;7.04;85.12
73600;BME280;61877;48.246;9.220;2023-06-05T03:10:47;94221.06;;;6.98;85.53
73600;BME280;61877;48.246;9.220;2023-06-05T03:13:12;94217.94;;;6.96;85.74
73600;BME280;61877;48.246;9.220;2023-06-05T03:15:37;94212.28;;;6.97;85.14
73600;BME280;61877;48.246;9.220;2023-06-05T03:18:03;94215.09;;;6.92;85.10
73600;BME280;61877;48.246;9.220;2023-06-05T03:20:28;94217.44;;;6.94;85.72
73600;BME280;61877;48.246;9.220;2023-06-05T03:22:55;94215.25;;;6.96;85.44
73600;BME280;61877;48.246;9.220;2023-06-05T03:25:20;94203.63;;;6.92;85.43
73600;BME280;61877;48.246;9.220;2023-06-05T03:27:46;94209.91;;;6.96;84.98
73600;BME280;61877;48.246;9.220;2023-06-05T03:30:12;94209.59;;;6.89;85.13
73600;BME280;61877;48.246;9.220;2023-06-05T03:32:37;94219.91;;;6.82;85.05
73600;BME280;61877;48.246;9.220;2023-06-05T03:35:03;94211.63;;;6.75;85.97
73600;BME280;61877;48.246;9.220;2023-06-05T03:37:29;94211.28;;;6.76;85.89
73600;BME280;61877;48.246;9.220;2023-06-05T03:39:55;94211.78;;;6.78;86.20
73600;BME280;61877;48.246;9.220;2023-06-05T03:42:21;94216.03;;;6.88;85.30
73600;BME280;61877;48.246;9.220;2023-06-05T03:44:46;94217.31;;;7.07;84.82
73600;BME280;61877;48.246;9.220;2023-06-05T03:47:11;94215.91;;;7.18;84.11
73600;BME280;61877;48.246;9.220;2023-06-05T03:49:37;94216.72;;;7.27;83.72
73600;BME280;61877;48.246;9.220;2023-06-05T03:52:03;94219.84;;;7.21;83.33
73600;BME280;61877;48.246;9.220;2023-06-05T03:54:28;94220.75;;;7.16;84.16
73600;BME280;61877;48.246;9.220;2023-06-05T03:56:55;94227.97;;;7.07;84.60
73600;BME280;61877;48.246;9.220;2023-06-05T03:59:20;94223.91;;;7.01;85.08
73600;BME280;61877;48.246;9.220;2023-06-05T04:01:46;94222.00;;;7.02;85.41
73600;BME280;61877;48.246;9.220;2023-06-05T04:04:11;94231.44;;;7.08;85.19
73600;BME280;61877;48.246;9.220;2023-06-05T04:06:36;94227.38;;;7.19;84.60
73600;BME280;61877;48.246;9.220;2023-06-05T04:09:02;94233.03;;;7.17;84.88
73600;BME280;61877;48.246;9.220;2023-06-05T04:11:27;94232.72;;;7.27;84.90
73600;BME280;61877;48.246;9.220;2023-06-05T04:13:54;94233.66;;;7.31;84.12
73600;BME280;61877;48.246;9.220;2023-06-05T04:16:20;94230.53;;;7.46;83.53
73600;BME280;61877;48.246;9.220;2023-06-05T04:18:45;94234.31;;;7.45;83.89
73600;BME280;61877;48.246;9.220;2023-06-05T04:21:11;94229.91;;;7.58;83.62
73600;BME280;61877;48.246;9.220;2023-06-05T04:23:36;94235.41;;;7.70;83.98
73600;BME280;61877;48.246;9.220;2023-06-05T04:26:01;94235.22;;;7.75;83.42
73600;BME280;61877;48.246;9.220;2023-06-05T04:28:27;94236.19;;;7.79;83.72
73600;BME280;61877;48.246;9.220;2023-06-05T04:30:54;94230.38;;;7.77;83.27
73600;BME280;61877;48.246;9.220;2023-06-05T04:33:21;94228.34;;;7.82;83.39
73600;BME280;61877;48.246;9.220;2023-06-05T04:35:46;94221.38;;;7.99;83.37
73600;BME280;61877;48.246;9.220;2023-06-05T04:38:12;94224.97;;;8.11;82.64
73600;BME280;61877;48.246;9.220;2023-06-05T04:40:37;94227.81;;;8.23;81.76
73600;BME280;61877;48.246;9.220;2023-06-05T04:43:02;94229.06;;;8.17;81.94
73600;BME280;61877;48.246;9.220;2023-06-05T04:45:28;94226.00;;;8.44;81.58
73600;BME280;61877;48.246;9.220;2023-06-05T04:47:55;94224.97;;;8.66;81.14
73600;BME280;61877;48.246;9.220;2023-06-05T04:50:24;94226.38;;;8.72;80.18
73600;BME280;61877;48.246;9.220;2023-06-05T04:52:50;94230.69;;;8.93;79.47
73600;BME280;61877;48.246;9.220;2023-06-05T04:55:16;94228.50;;;9.16;79.02
73600;BME280;61877;48.246;9.220;2023-06-05T04:57:41;94219.47;;;9.21;78.40
73600;BME280;61877;48.246;9.220;2023-06-05T05:00:08;94230.88;;;9.38;78.00
73600;BME280;61877;48.246;9.220;2023-06-05T05:02:33;94233.03;;;9.45;77.27
73600;BME280;61877;48.246;9.220;2023-06-05T05:05:00;94233.81;;;9.66;77.14
73600;BME280;61877;48.246;9.220;2023-06-05T05:07:25;94227.31;;;9.87;76.84
73600;BME280;61877;48.246;9.220;2023-06-05T05:09:51;94223.53;;;10.09;75.28
73600;BME280;61877;48.246;9.220;2023-06-05T05:12:16;94222.97;;;10.15;74.98
73600;BME280;61877;48.246;9.220;2023-06-05T05:14:41;94224.03;;;10.23;73.93
73600;BME280;61877;48.246;9.220;2023-06-05T05:17:07;94221.22;;;10.31;74.46
73600;BME280;61877;48.246;9.220;2023-06-05T05:19:32;94215.13;;;10.55;73.51
73600;BME280;61877;48.246;9.220;2023-06-05T05:21:59;94222.09;;;10.56;73.18
73600;BME280;61877;48.246;9.220;2023-06-05T05:24:25;94217.84;;;10.67;73.05
73600;BME280;61877;48.246;9.220;2023-06-05T05:26:52;94216.38;;;10.82;72.19
73600;BME280;61877;48.246;9.220;2023-06-05T05:29:17;94212.03;;;11.01;72.99
73600;BME280;61877;48.246;9.220;2023-06-05T05:31:43;94214.94;;;11.32;73.14
73600;BME280;61877;48.246;9.220;2023-06-05T05:34:09;94208.09;;;11.23;72.05
73600;BME280;61877;48.246;9.220;2023-06-05T05:36:34;94211.75;;;11.42;71.48
73600;BME280;61877;48.246;9.220;2023-06-05T05:39:01;94211.97;;;11.49;71.70
73600;BME280;61877;48.246;9.220;2023-06-05T05:41:26;94213.19;;;11.64;71.31
73600;BME280;61877;48.246;9.220;2023-06-05T05:43:52;94214.75;;;11.65;71.49
73600;BME280;61877;48.246;9.220;2023-06-05T05:46:17;94208.94;;;11.91;71.65
73600;BME280;61877;48.246;9.220;2023-06-05T05:48:42;94214.84;;;12.24;69.76
73600;BME280;61877;48.246;9.220;2023-06-05T05:51:08;94209.78;;;12.34;69.88
73600;BME280;61877;48.246;9.220;2023-06-05T05:53:33;94215.03;;;12.58;68.73
73600;BME280;61877;48.246;9.220;2023-06-05T05:56:00;94218.06;;;12.88;67.76
73600;BME280;61877;48.246;9.220;2023-06-05T05:58:25;94219.31;;;13.06;67.34
73600;BME280;61877;48.246;9.220;2023-06-05T06:00:51;94213.63;;;13.27;67.16
73600;BME280;61877;48.246;9.220;2023-06-05T06:03:17;94211.44;;;13.32;66.06
73600;BME280;61877;48.246;9.220;2023-06-05T06:05:42;94214.31;;;13.39;65.58
73600;BME280;61877;48.246;9.220;2023-06-05T06:08:08;94210.03;;;13.73;65.25
73600;BME280;61877;48.246;9.220;2023-06-05T06:10:33;94214.72;;;13.76;65.49
73600;BME280;61877;48.246;9.220;2023-06-05T06:13:00;94215.94;;;13.97;66.26
73600;BME280;61877;48.246;9.220;2023-06-05T06:15:26;94210.84;;;14.31;65.46
73600;BME280;61877;48.246;9.220;2023-06-05T06:17:51;94204.88;;;14.63;64.16
73600;BME280;61877;48.246;9.220;2023-06-05T06:20:16;94202.66;;;14.69;64.71
73600;BME280;61877;48.246;9.220;2023-06-05T06:22:42;94200.56;;;14.81;63.89
73600;BME280;61877;48.246;9.220;2023-06-05T06:25:09;94194.22;;;15.19;62.41
73600;BME280;61877;48.246;9.220;2023-06-05T06:27:35;94197.72;;;15.45;61.68
73600;BME280;61877;48.246;9.220;2023-06-05T06:30:02;94198.44;;;15.69;62.84
73600;BME280;61877;48.246;9.220;2023-06-05T06:32:28;94194.41;;;15.85;62.96
73600;BME280;61877;48.246;9.220;2023-06-05T06:34:54;94202.91;;;16.13;62.53
73600;BME280;61877;48.246;9.220;2023-06-05T06:37:20;94194.44;;;16.48;61.25
73600;BME280;61877;48.246;9.220;2023-06-05T06:39:46;94195.03;;;16.71;61.92
73600;BME280;61877;48.246;9.220;2023-06-05T06:42:11;94196.81;;;16.97;64.93
73600;BME280;61877;48.246;9.220;2023-06-05T06:44:37;94190.09;;;17.27;64.41
73600;BME280;61877;48.246;9.220;2023-06-05T06:47:04;94194.41;;;17.35;65.41
73600;BME280;61877;48.246;9.220;2023-06-05T06:49:29;94196.13;;;17.54;64.99
73600;BME280;61877;48.246;9.220;2023-06-05T06:51:54;94200.09;;;17.67;64.63
73600;BME280;61877;48.246;9.220;2023-06-05T06:54:20;94198.69;;;17.90;64.50
73600;BME280;61877;48.246;9.220;2023-06-05T06:56:45;94197.28;;;18.28;63.55
73600;BME280;61877;48.246;9.220;2023-06-05T06:59:11;94195.84;;;18.48;62.37
73600;BME280;61877;48.246;9.220;2023-06-05T07:01:41;94190.84;;;18.71;62.08
73600;BME280;61877;48.246;9.220;2023-06-05T07:04:08;94195.09;;;18.69;60.64
73600;BME280;61877;48.246;9.220;2023-06-05T07:06:34;94190.47;;;18.83;60.81
73600;BME280;61877;48.246;9.220;2023-06-05T07:08:59;94194.38;;;18.96;60.84
73600;BME280;61877;48.246;9.220;2023-06-05T07:11:25;94185.44;;;19.13;60.62
73600;BME280;61877;48.246;9.220;2023-06-05T07:13:50;94188.94;;;19.24;59.28
73600;BME280;61877;48.246;9.220;2023-06-05T07:16:15;94190.94;;;19.42;59.02
73600;BME280;61877;48.246;9.220;2023-06-05T07:18:41;94186.25;;;19.56;59.18
73600;BME280;61877;48.246;9.220;2023-06-05T07:21:07;94189.31;;;19.83;59.07
73600;BME280;61877;48.246;9.220;2023-06-05T07:23:33;94189.69;;;19.78;58.20
73600;BME280;61877;48.246;9.220;2023-06-05T07:25:58;94186.53;;;19.97;59.53
73600;BME280;61877;48.246;9.220;2023-06-05T07:28:23;94189.69;;;19.81;58.39
73600;BME280;61877;48.246;9.220;2023-06-05T07:30:49;94193.97;;;19.72;57.89
73600;BME280;61877;48.246;9.220;2023-06-05T07:33:14;94182.25;;;20.03;56.58
73600;BME280;61877;48.246;9.220;2023-06-05T07:35:39;94184.91;;;20.10;57.08
73600;BME280;61877;48.246;9.220;2023-06-05T07:38:06;94191.50;;;20.26;55.20
73600;BME280;61877;48.246;9.220;2023-06-05T07:40:31;94197.34;;;20.25;54.79
73600;BME280;61877;48.246;9.220;2023-06-05T07:42:57;94189.59;;;20.13;56.46
73600;BME280;61877;48.246;9.220;2023-06-05T07:45:22;94184.09;;;20.37;55.91
73600;BME280;61877;48.246;9.220;2023-06-05T07:47:48;94181.25;;;20.55;54.17
73600;BME280;61877;48.246;9.220;2023-06-05T07:50:13;94181.84;;;20.91;54.00
73600;BME280;61877;48.246;9.220;2023-06-05T07:52:39;94184.47;;;21.08;53.19
73600;BME280;61877;48.246;9.220;2023-06-05T07:55:07;94177.50;;;20.97;51.47
73600;BME280;61877;48.246;9.220;2023-06-05T07:57:33;94176.91;;;21.30;52.01
73600;BME280;61877;48.246;9.220;2023-06-05T07:59:59;94171.66;;;21.49;51.06
73600;BME280;61877;48.246;9.220;2023-06-05T08:02:25;94180.78;;;21.77;49.51
73600;BME280;61877;48.246;9.220;2023-06-05T08:04:51;94178.09;;;21.29;49.99
73600;BME280;61877;48.246;9.220;2023-06-05T08:07:16;94182.63;;;22.24;50.18
73600;BME280;61877;48.246;9.220;2023-06-05T08:09:42;94179.03;;;21.97;49.49
73600;BME280;61877;48.246;9.220;2023-06-05T08:12:09;94177.25;;;22.17;48.50
73600;BME280;61877;48.246;9.220;2023-06-05T08:14:34;94175.72;;;22.46;49.71
73600;BME280;61877;48.246;9.220;2023-06-05T08:17:00;94188.34;;;22.36;47.63
73600;BME280;61877;48.246;9.220;2023-06-05T08:19:25;94179.56;;;22.82;45.27
73600;BME280;61877;48.246;9.220;2023-06-05T08:21:52;94181.28;;;22.69;46.26
73600;BME280;61877;48.246;9.220;2023-06-05T08:24:17;94174.50;;;23.07;44.37
73600;BME280;61877;48.246;9.220;2023-06-05T08:26:43;94176.16;;;23.01;45.38
73600;BME280;61877;48.246;9.220;2023-06-05T08:29:15;94177.78;;;22.95;46.45
73600;BME280;61877;48.246;9.220;2023-06-05T08:31:40;94181.25;;;22.39;46.84
73600;BME280;61877;48.246;9.220;2023-06-05T08:34:05;94176.94;;;22.41;45.96
73600;BME280;61877;48.246;9.220;2023-06-05T08:36:31;94176.69;;;22.29;46.51
73600;BME280;61877;48.246;9.220;2023-06-05T08:38:56;94171.81;;;22.13;47.19
73600;BME280;61877;48.246;9.220;2023-06-05T08:41:22;94171.03;;;22.13;47.59
73600;BME280;61877;48.246;9.220;2023-06-05T08:43:47;94164.44;;;22.10;47.69
73600;BME280;61877;48.246;9.220;2023-06-05T08:46:14;94178.25;;;21.96;48.45
73600;BME280;61877;48.246;9.220;2023-06-05T08:48:42;94180.22;;;22.29;46.96
73600;BME280;61877;48.246;9.220;2023-06-05T08:51:09;94177.09;;;22.27;46.58
73600;BME280;61877;48.246;9.220;2023-06-05T08:53:35;94176.94;;;22.08;47.01
73600;BME280;61877;48.246;9.220;2023-06-05T08:56:02;94172.38;;;21.98;47.66
73600;BME280;61877;48.246;9.220;2023-06-05T08:58:28;94178.03;;;21.32;48.28
73600;BME280;61877;48.246;9.220;2023-06-05T09:00:54;94166.34;;;21.35;47.19
73600;BME280;61877;48.246;9.220;2023-06-05T09:03:21;94166.91;;;21.57;47.34
73600;BME280;61877;48.246;9.220;2023-06-05T09:05:47;94171.88;;;21.25;48.59
73600;BME280;61877;48.246;9.220;2023-06-05T09:08:13;94179.16;;;20.80;48.85
73600;BME280;61877;48.246;9.220;2023-06-05T09:10:39;94173.63;;;20.94;48.72
73600;BME280;61877;48.246;9.220;2023-06-05T09:13:05;94175.44;;;21.62;47.19
73600;BME280;61877;48.246;9.220;2023-06-05T09:15:33;94170.06;;;22.90;46.06
73600;BME280;61877;48.246;9.220;2023-06-05T09:18:06;94178.88;;;23.31;44.30
73600;BME280;61877;48.246;9.220;2023-06-05T09:20:33;94160.53;;;23.74;40.78
73600;BME280;61877;48.246;9.220;2023-06-05T09:22:59;94168.34;;;23.95;38.06
73600;BME280;61877;48.246;9.220;2023-06-05T09:25:24;94172.75;;;24.52;37.56
73600;BME280;61877;48.246;9.220;2023-06-05T09:28:05;94167.75;;;24.66;39.12
73600;BME280;61877;48.246;9.220;2023-06-05T09:30:34;94163.25;;;24.76;37.27
73600;BME280;61877;48.246;9.220;2023-06-05T09:33:18;94156.78;;;24.47;37.80
73600;BME280;61877;48.246;9.220;2023-06-05T09:35:45;94159.31;;;25.28;38.34
73600;BME280;61877;48.246;9.220;2023-06-05T09:38:25;94163.97;;;25.48;35.59
73600;BME280;61877;48.246;9.220;2023-06-05T09:40:51;94157.63;;;25.95;34.19
73600;BME280;61877;48.246;9.220;2023-06-05T09:43:21;94157.50;;;25.86;34.95
73600;BME280;61877;48.246;9.220;2023-06-05T09:45:46;94152.59;;;25.13;34.40
73600;BME280;61877;48.246;9.220;2023-06-05T09:48:15;94153.25;;;25.53;33.33
73600;BME280;61877;48.246;9.220;2023-06-05T09:50:40;94149.50;;;24.40;34.39
73600;BME280;61877;48.246;9.220;2023-06-05T09:53:08;94145.88;;;24.43;35.70
73600;BME280;61877;48.246;9.220;2023-06-05T09:55:34;94142.00;;;25.48;35.36
73600;BME280;61877;48.246;9.220;2023-06-05T09:58:04;94149.69;;;26.29;33.44
73600;BME280;61877;48.246;9.220;2023-06-05T10:00:29;94145.75;;;25.70;34.16
73600;BME280;61877;48.246;9.220;2023-06-05T10:02:58;94150.81;;;25.71;37.51
73600;BME280;61877;48.246;9.220;2023-06-05T10:05:24;94149.69;;;26.29;33.49
73600;BME280;61877;48.246;9.220;2023-06-05T10:07:50;94149.25;;;25.86;34.12
73600;BME280;61877;48.246;9.220;2023-06-05T10:10:17;94153.97;;;25.86;34.17
73600;BME280;61877;48.246;9.220;2023-06-05T10:12:43;94144.13;;;26.17;32.78
73600;BME280;61877;48.246;9.220;2023-06-05T10:15:09;94150.06;;;26.98;32.92
73600;BME280;61877;48.246;9.220;2023-06-05T10:17:35;94149.66;;;25.04;34.28
73600;BME280;61877;48.246;9.220;2023-06-05T10:20:01;94156.03;;;23.84;34.71
73600;BME280;61877;48.246;9.220;2023-06-05T10:22:27;94154.53;;;24.42;35.18
73600;BME280;61877;48.246;9.220;2023-06-05T10:24:56;94160.28;;;24.86;35.02
73600;BME280;61877;48.246;9.220;2023-06-05T10:27:37;94143.03;;;24.31;33.87
73600;BME280;61877;48.246;9.220;2023-06-05T10:30:26;94142.63;;;25.84;33.93
73600;BME280;61877;48.246;9.220;2023-06-05T10:33:05;94136.59;;;27.00;30.73
73600;BME280;61877;48.246;9.220;2023-06-05T10:35:41;94139.13;;;26.40;30.65
73600;BME280;61877;48.246;9.220;2023-06-05T10:38:15;94135.16;;;26.29;30.89
73600;BME280;61877;48.246;9.220;2023-06-05T10:40:41;94135.31;;;26.09;32.97
73600;BME280;61877;48.246;9.220;2023-06-05T10:43:29;94138.63;;;26.01;34.58
73600;BME280;61877;48.246;9.220;2023-06-05T10:45:56;94143.56;;;27.04;32.11
73600;BME280;61877;48.246;9.220;2023-06-05T10:51:35;94144.03;;;25.11;33.20
73600;BME280;61877;48.246;9.220;2023-06-05T10:54:01;94142.00;;;24.80;34.35
73600;BME280;61877;48.246;9.220;2023-06-05T10:56:58;94138.72;;;24.69;34.65
73600;BME280;61877;48.246;9.220;2023-06-05T10:59:25;94141.13;;;24.83;34.29
73600;BME280;61877;48.246;9.220;2023-06-05T11:02:22;94139.34;;;25.60;33.42
73600;BME280;61877;48.246;9.220;2023-06-05T11:05:07;94135.94;;;27.08;32.18
73600;BME280;61877;48.246;9.220;2023-06-05T11:07:32;94128.72;;;28.20;32.49
73600;BME280;61877;48.246;9.220;2023-06-05T11:10:05;94139.53;;;27.80;29.23
73600;BME280;61877;48.246;9.220;2023-06-05T11:12:58;94130.03;;;27.81;31.09
73600;BME280;61877;48.246;9.220;2023-06-05T11:15:40;94136.00;;;28.14;29.67
73600;BME280;61877;48.246;9.220;2023-06-05T11:18:34;94130.09;;;28.89;29.31
73600;BME280;61877;48.246;9.220;2023-06-05T11:21:00;94136.31;;;28.50;29.76
73600;BME280;61877;48.246;9.220;2023-06-05T11:23:27;94127.16;;;28.62;28.71
73600;BME280;61877;48.246;9.220;2023-06-05T11:25:52;94132.16;;;27.65;29.93
73600;BME280;61877;48.246;9.220;2023-06-05T11:28:39;94134.88;;;27.77;28.43
73600;BME280;61877;48.246;9.220;2023-06-05T11:31:07;94132.78;;;28.50;30.75
73600;BME280;61877;48.246;9.220;2023-06-05T11:33:32;94119.59;;;29.37;29.59
73600;BME280;61877;48.246;9.220;2023-06-05T11:36:04;94127.91;;;28.84;27.29
73600;BME280;61877;48.246;9.220;2023-06-05T11:38:30;94139.47;;;28.06;28.60
73600;BME280;61877;48.246;9.220;2023-06-05T11:40:56;94124.50;;;27.35;29.96
73600;BME280;61877;48.246;9.220;2023-06-05T11:43:21;94125.81;;;27.55;30.64
73600;BME280;61877;48.246;9.220;2023-06-05T11:45:51;94115.25;;;28.44;31.66
73600;BME280;61877;48.246;9.220;2023-06-05T11:48:19;94118.03;;;28.74;29.30
73600;BME280;61877;48.246;9.220;2023-06-05T11:50:56;94118.03;;;28.74;27.45
73600;BME280;61877;48.246;9.220;2023-06-05T11:53:24;94129.66;;;28.26;28.47
73600;BME280;61877;48.246;9.220;2023-06-05T11:55:50;94119.56;;;28.75;28.95
73600;BME280;61877;48.246;9.220;2023-06-05T11:58:20;94122.88;;;27.84;30.28
73600;BME280;61877;48.246;9.220;2023-06-05T12:00:46;94119.19;;;28.21;27.29
73600;BME280;61877;48.246;9.220;2023-06-05T12:03:19;94117.34;;;27.84;29.09
73600;BME280;61877;48.246;9.220;2023-06-05T12:05:45;94109.84;;;28.19;28.75
73600;BME280;61877;48.246;9.220;2023-06-05T12:08:26;94117.53;;;28.02;27.99
73600;BME280;61877;48.246;9.220;2023-06-05T12:10:52;94113.84;;;27.71;27.92
73600;BME280;61877;48.246;9.220;2023-06-05T12:13:18;94110.47;;;27.54;28.96
73600;BME280;61877;48.246;9.220;2023-06-05T12:15:56;94109.47;;;26.60;31.07
73600;BME280;61877;48.246;9.220;2023-06-05T12:18:30;94099.63;;;26.34;31.49
73600;BME280;61877;48.246;9.220;2023-06-05T12:20:56;94105.59;;;26.45;30.49
73600;BME280;61877;48.246;9.220;2023-06-05T12:23:21;94099.66;;;27.60;28.26
73600;BME280;61877;48.246;9.220;2023-06-05T12:25:58;94090.66;;;29.20;26.08
73600;BME280;61877;48.246;9.220;2023-06-05T12:28:23;94088.03;;;30.10;26.49
73600;BME280;61877;48.246;9.220;2023-06-05T12:30:49;94071.88;;;30.54;24.83
73600;BME280;61877;48.246;9.220;2023-06-05T12:33:14;94080.97;;;29.82;27.52
73600;BME280;61877;48.246;9.220;2023-06-05T12:35:41;94095.91;;;28.96;28.24
73600;BME280;61877;48.246;9.220;2023-06-05T12:38:06;94093.97;;;27.42;27.91
73600;BME280;61877;48.246;9.220;2023-06-05T12:40:32;94087.38;;;27.02;28.99
73600;BME280;61877;48.246;9.220;2023-06-05T12:43:01;94088.22;;;26.61;30.77
73600;BME280;61877;48.246;9.220;2023-06-05T12:45:27;94084.69;;;26.60;29.63
73600;BME280;61877;48.246;9.220;2023-06-05T12:47:54;94083.72;;;27.76;27.90
73600;BME280;61877;48.246;9.220;2023-06-05T12:50:21;94071.78;;;28.57;28.74
73600;BME280;61877;48.246;9.220;2023-06-05T12:52:48;94056.97;;;29.03;26.07
73600;BME280;61877;48.246;9.220;2023-06-05T12:55:13;94065.59;;;29.90;25.67
73600;BME280;61877;48.246;9.220;2023-06-05T12:57:39;94065.44;;;29.66;25.76
73600;BME280;61877;48.246;9.220;2023-06-05T13:00:06;94074.25;;;28.64;27.17
73600;BME280;61877;48.246;9.220;2023-06-05T13:02:32;94069.75;;;30.03;26.64
73600;BME280;61877;48.246;9.220;2023-06-05T13:04:58;94071.69;;;28.69;26.06
73600;BME280;61877;48.246;9.220;2023-06-05T13:07:24;94077.19;;;27.96;26.31